Jawor — C6YH8 — position and weather

sailwx.info

Track history (hours):
 
Tides and Currents Weather Stations Pressure Air Temp Water Temp Dewpoint Dewpoint Depression Visibility Wind Speed Wind Dir Waves Ship Positions

Jawor

Last reported at 2016-Jul-29 02:29 UTC. Time now 2016-Jul-29 12:09 UTC.
Position N 33°48' E 030°46'.

Length 229 m; draft 7 m.

Type: Cargo ship. MMSI: 311034100.

Date/timePositionNaut miles runAvg speedWind from/ knotsBaromVisibWave heightAir tempDewpointWater temp
2016-Jul-29 02:29N 33°48' E 030°46'1111.6
2016-Jul-29 01:32N 33°47' E 030°60'1111.7
2016-Jul-29 00:33N 33°45' E 031°13'1211.8
2016-Jul-28 23:33N 33°44' E 031°27'1211.8
2016-Jul-28 22:33N 33°42' E 031°41'1211.9
2016-Jul-28 21:33N 33°40' E 031°56'1212.0
2016-Jul-28 20:33N 33°39' E 032°10'1212.0
2016-Jul-28 19:33N 33°38' E 032°24'1212.0
2016-Jul-28 18:33N 33°37' E 032°39'1211.9
2016-Jul-28 17:33N 33°35' E 032°53'5 4.5
2016-Jul-28 16:33N 33°35' E 032°58'1 1.0
2016-Jul-28 15:30N 33°35' E 032°57'1 1.1
2016-Jul-28 14:33N 33°35' E 032°56'4 3.6
2016-Jul-28 13:33N 33°32' E 032°58'1211.7
2016-Jul-28 12:33N 33°24' E 033°08'1212.1
2016-Jul-28 11:33N 33°15' E 033°18'1212.4
2016-Jul-28 10:33N 33°06' E 033°28'5 4.2
2016-Jul-28 09:30N 33°04' E 033°33'1 0.6
2016-Jul-28 08:32N 33°04' E 033°32'1 0.4
2016-Jul-28 07:23N 33°04' E 033°32'0 0.4
2016-Jul-28 06:32N 33°04' E 033°31'1 0.3
2016-Jul-28 04:33N 33°05' E 033°31'0 0.3
2016-Jul-28 03:32N 33°05' E 033°31'0 0.4
2016-Jul-28 02:29N 33°05' E 033°31'0 0.4
2016-Jul-28 01:33N 33°06' E 033°31'0 0.5
2016-Jul-28 00:32N 33°06' E 033°31'1 0.5
2016-Jul-27 23:32N 33°07' E 033°32'0 0.5
2016-Jul-27 22:32N 33°07' E 033°32'1 0.5
2016-Jul-27 21:32N 33°08' E 033°31'1 0.7
2016-Jul-27 20:32N 33°08' E 033°31'1 0.8
2016-Jul-27 19:32N 33°09' E 033°31'1 0.8
2016-Jul-27 18:32N 33°10' E 033°30'1 0.8
2016-Jul-27 17:32N 33°10' E 033°30'1 0.9
2016-Jul-27 16:32N 33°11' E 033°29'1 1.0
2016-Jul-27 15:32N 33°11' E 033°28'1 1.1
2016-Jul-27 14:32N 33°11' E 033°26'1 1.1
2016-Jul-27 13:32N 33°11' E 033°25'1 1.2
2016-Jul-27 12:32N 33°11' E 033°24'1 1.1
2016-Jul-27 11:29N 33°11' E 033°22'1 1.0
2016-Jul-27 10:32N 33°11' E 033°21'1 0.9
2016-Jul-27 09:32N 33°11' E 033°20'1 1.0
2016-Jul-27 08:32N 33°11' E 033°19'1 1.0
2016-Jul-27 07:32N 33°11' E 033°17'1 0.9
2016-Jul-27 06:26N 33°11' E 033°16'1 0.9
2016-Jul-27 05:32N 33°11' E 033°15'1 0.8
2016-Jul-27 04:29N 33°11' E 033°14'1 0.6
2016-Jul-27 03:32N 33°11' E 033°14'1 0.6
2016-Jul-27 02:32N 33°11' E 033°13'1 0.5
2016-Jul-27 01:32N 33°11' E 033°12'0 0.5
2016-Jul-27 00:32N 33°11' E 033°12'0 0.4
2016-Jul-26 23:32N 33°11' E 033°11'0 0.4
2016-Jul-26 22:32N 33°11' E 033°11'0 0.4
2016-Jul-26 21:29N 33°11' E 033°10'0 0.5
2016-Jul-26 20:32N 33°11' E 033°10'0 0.4
2016-Jul-26 19:29N 33°12' E 033°09'0 0.4
2016-Jul-26 18:32N 33°12' E 033°09'0 0.4
2016-Jul-26 17:32N 33°12' E 033°09'0 0.5
2016-Jul-26 16:29N 33°12' E 033°08'1 0.5
2016-Jul-26 15:32N 33°13' E 033°08'1 0.6
2016-Jul-26 14:32N 33°13' E 033°07'1 0.6
2016-Jul-26 13:26N 33°13' E 033°06'1 0.7
2016-Jul-26 12:32N 33°14' E 033°06'1 0.7
2016-Jul-26 11:23N 33°14' E 033°05'1 0.7
2016-Jul-26 10:05N 33°15' E 033°04'2 0.7
2016-Jul-26 07:29N 33°15' E 033°02'1 0.6
2016-Jul-26 05:32N 33°16' E 033°01'4 0.5
2016-Jul-25 22:20N 33°19' E 032°59'1 0.7
2016-Jul-25 21:26N 33°19' E 032°58'1 0.7
2016-Jul-25 20:29N 33°20' E 032°58'1 0.7
2016-Jul-25 19:32N 33°21' E 032°58'2 0.9
2016-Jul-25 17:23N 33°23' E 032°59'7 7.0
2016-Jul-25 16:20N 33°25' E 033°07'1012.2
2016-Jul-25 15:33N 33°27' E 033°18'1312.0
2016-Jul-25 14:28N 33°30' E 033°33'1511.9
2016-Jul-25 13:14N 33°33' E 033°51'911.9
2016-Jul-25 12:28N 33°34' E 034°01'10 9.9
2016-Jul-25 11:28N 33°36' E 034°13'9 1.0
2016-Jul-25 02:32N 33°34' E 034°02'3 0.8
2016-Jul-24 22:32N 33°33' E 033°59'1 0.7
2016-Jul-24 21:05N 33°33' E 033°58'0 0.7
2016-Jul-24 20:29N 33°33' E 033°57'1 0.7
2016-Jul-24 19:29N 33°33' E 033°56'2 1.0
2016-Jul-24 17:17N 33°33' E 033°54'2 1.0
2016-Jul-24 15:32N 33°33' E 033°52'2 1.1
2016-Jul-24 13:29N 33°34' E 033°49'1 1.3
2016-Jul-24 12:23N 33°34' E 033°47'1 1.4
2016-Jul-24 11:29N 33°34' E 033°46'6 1.4
2016-Jul-24 07:14N 33°32' E 033°39'1 1.2
2016-Jul-24 06:05N 33°32' E 033°37'2 1.2
2016-Jul-24 04:20N 33°31' E 033°35'1 1.2
2016-Jul-24 03:32N 33°30' E 033°34'1 1.1
2016-Jul-24 02:32N 33°29' E 033°33'1 1.1
2016-Jul-24 01:32N 33°29' E 033°32'1 1.0
2016-Jul-24 00:32N 33°28' E 033°31'1 1.0
2016-Jul-23 23:17N 33°28' E 033°30'1 0.9
2016-Jul-23 22:32N 33°27' E 033°29'1 0.9
2016-Jul-23 21:32N 33°27' E 033°28'1 0.8
2016-Jul-23 20:32N 33°26' E 033°27'1 0.8
2016-Jul-23 19:32N 33°26' E 033°27'1 0.7
2016-Jul-23 18:32N 33°26' E 033°26'1 0.7
2016-Jul-23 17:29N 33°25' E 033°25'1 0.7
2016-Jul-23 15:29N 33°25' E 033°23'2 0.8
2016-Jul-23 13:32N 33°25' E 033°22'1 0.7
2016-Jul-23 12:11N 33°24' E 033°21'0 0.6
2016-Jul-23 11:23N 33°24' E 033°20'88 1.9
2016-Jul-21 12:34N 32°52' E 034°58'3 3.1
2016-Jul-21 11:31N 32°49' E 034°60'0 0.0
2016-Jul-21 10:31N 32°49' E 034°60'0 0.0
2016-Jul-21 09:32N 32°49' E 034°60'0 0.0
2016-Jul-21 08:31N 32°49' E 034°60'0 0.0
2016-Jul-21 07:32N 32°49' E 034°60'0 0.0
2016-Jul-21 06:32N 32°49' E 034°60'0 0.0
2016-Jul-21 05:32N 32°49' E 034°60'0 0.0
2016-Jul-21 04:32N 32°49' E 034°60'0 0.0
2016-Jul-21 03:32N 32°49' E 034°60'0 0.0
2016-Jul-21 02:28N 32°49' E 034°60'0 0.0
2016-Jul-21 01:31N 32°49' E 034°60'0 0.0
2016-Jul-21 00:32N 32°49' E 034°60'0 0.0
2016-Jul-20 23:31N 32°49' E 034°60'0 0.0
2016-Jul-20 22:31N 32°49' E 034°60'0 0.0
2016-Jul-20 21:32N 32°49' E 034°60'0 0.0
2016-Jul-20 20:31N 32°49' E 034°60'0 0.0
2016-Jul-20 19:31N 32°49' E 034°60'0 0.0
2016-Jul-20 18:31N 32°49' E 034°60'0 0.0
2016-Jul-20 17:31N 32°49' E 034°60'0 0.0
2016-Jul-20 16:31N 32°49' E 034°60'0 0.0
2016-Jul-20 15:31N 32°49' E 034°60'0 0.0
2016-Jul-20 14:32N 32°49' E 034°60'0 0.0
2016-Jul-20 13:28N 32°49' E 034°60'0 0.0
2016-Jul-20 12:31N 32°49' E 034°60'0 0.0
2016-Jul-20 11:31N 32°49' E 034°60'0 0.0
2016-Jul-20 10:31N 32°49' E 034°60'0 0.0
2016-Jul-20 09:31N 32°49' E 034°60'0 0.0
2016-Jul-20 08:31N 32°49' E 034°60'0 0.0
2016-Jul-20 07:28N 32°49' E 034°60'0 0.0
2016-Jul-20 06:28N 32°49' E 034°60'0 0.0
2016-Jul-20 05:31N 32°49' E 034°60'0 0.0
2016-Jul-20 04:31N 32°49' E 034°60'0 0.0
2016-Jul-20 03:31N 32°49' E 034°60'0 0.0
2016-Jul-20 02:31N 32°49' E 034°60'0 0.0
2016-Jul-20 01:31N 32°49' E 034°60'0 0.0
2016-Jul-20 00:31N 32°49' E 034°60'0 0.0
2016-Jul-19 23:31N 32°49' E 034°60'0 0.0
2016-Jul-19 22:31N 32°49' E 034°60'0 0.0
2016-Jul-19 21:28N 32°49' E 034°60'0 0.0
2016-Jul-19 20:28N 32°49' E 034°60'0 0.0
2016-Jul-19 19:28N 32°49' E 034°60'0 0.0
2016-Jul-19 18:28N 32°49' E 034°60'0 0.0
2016-Jul-19 17:31N 32°49' E 034°60'0 0.0
2016-Jul-19 16:31N 32°49' E 034°60'0 0.0
2016-Jul-19 15:31N 32°49' E 034°60'0 0.0
2016-Jul-19 14:31N 32°49' E 034°60'0 0.0
2016-Jul-19 13:31N 32°49' E 034°60'0 0.0
2016-Jul-19 12:31N 32°49' E 034°60'0 0.0
2016-Jul-19 11:31N 32°49' E 034°60'0 0.0
2016-Jul-19 10:28N 32°49' E 034°60'0 0.0
2016-Jul-19 09:31N 32°49' E 034°60'0 0.0
2016-Jul-19 08:31N 32°49' E 034°60'0 0.0
2016-Jul-19 07:25N 32°49' E 034°60'0 0.0
2016-Jul-19 04:31N 32°49' E 034°60'0 0.0
2016-Jul-19 03:31N 32°49' E 034°60'0 0.0
2016-Jul-19 02:31N 32°49' E 034°60'  
Track history (hours):
 
Tides and Currents Weather Stations Pressure Air Temp Water Temp Dewpoint Dewpoint Depression Visibility Wind Speed Wind Dir Waves Ship Positions

Jawor

Last reported at 2016-Jul-29 02:29 UTC. Time now 2016-Jul-29 12:09 UTC.
Position N 33°48' E 030°46'.

Length 229 m; draft 7 m.

Type: Cargo ship. MMSI: 311034100.

Date/timePositionNaut miles runAvg speedWind from/ knotsBaromVisibWave heightAir tempDewpointWater temp
2016-Jul-29 02:29N 33°48' E 030°46'1111.6
2016-Jul-29 01:32N 33°47' E 030°60'1111.7
2016-Jul-29 00:33N 33°45' E 031°13'1211.8
2016-Jul-28 23:33N 33°44' E 031°27'1211.8
2016-Jul-28 22:33N 33°42' E 031°41'1211.9
2016-Jul-28 21:33N 33°40' E 031°56'1212.0
2016-Jul-28 20:33N 33°39' E 032°10'1212.0
2016-Jul-28 19:33N 33°38' E 032°24'1212.0
2016-Jul-28 18:33N 33°37' E 032°39'1211.9
2016-Jul-28 17:33N 33°35' E 032°53'5 4.5
2016-Jul-28 16:33N 33°35' E 032°58'1 1.0
2016-Jul-28 15:30N 33°35' E 032°57'1 1.1
2016-Jul-28 14:33N 33°35' E 032°56'4 3.6
2016-Jul-28 13:33N 33°32' E 032°58'1211.7
2016-Jul-28 12:33N 33°24' E 033°08'1212.1
2016-Jul-28 11:33N 33°15' E 033°18'1212.4
2016-Jul-28 10:33N 33°06' E 033°28'5 4.2
2016-Jul-28 09:30N 33°04' E 033°33'1 0.6
2016-Jul-28 08:32N 33°04' E 033°32'1 0.4
2016-Jul-28 07:23N 33°04' E 033°32'0 0.4
2016-Jul-28 06:32N 33°04' E 033°31'1 0.3
2016-Jul-28 04:33N 33°05' E 033°31'0 0.3
2016-Jul-28 03:32N 33°05' E 033°31'0 0.4
2016-Jul-28 02:29N 33°05' E 033°31'0 0.4
2016-Jul-28 01:33N 33°06' E 033°31'0 0.5
2016-Jul-28 00:32N 33°06' E 033°31'1 0.5
2016-Jul-27 23:32N 33°07' E 033°32'0 0.5
2016-Jul-27 22:32N 33°07' E 033°32'1 0.5
2016-Jul-27 21:32N 33°08' E 033°31'1 0.7
2016-Jul-27 20:32N 33°08' E 033°31'1 0.8
2016-Jul-27 19:32N 33°09' E 033°31'1 0.8
2016-Jul-27 18:32N 33°10' E 033°30'1 0.8
2016-Jul-27 17:32N 33°10' E 033°30'1 0.9
2016-Jul-27 16:32N 33°11' E 033°29'1 1.0
2016-Jul-27 15:32N 33°11' E 033°28'1 1.1
2016-Jul-27 14:32N 33°11' E 033°26'1 1.1
2016-Jul-27 13:32N 33°11' E 033°25'1 1.2
2016-Jul-27 12:32N 33°11' E 033°24'1 1.1
2016-Jul-27 11:29N 33°11' E 033°22'1 1.0
2016-Jul-27 10:32N 33°11' E 033°21'1 0.9
2016-Jul-27 09:32N 33°11' E 033°20'1 1.0
2016-Jul-27 08:32N 33°11' E 033°19'1 1.0
2016-Jul-27 07:32N 33°11' E 033°17'1 0.9
2016-Jul-27 06:26N 33°11' E 033°16'1 0.9
2016-Jul-27 05:32N 33°11' E 033°15'1 0.8
2016-Jul-27 04:29N 33°11' E 033°14'1 0.6
2016-Jul-27 03:32N 33°11' E 033°14'1 0.6
2016-Jul-27 02:32N 33°11' E 033°13'1 0.5
2016-Jul-27 01:32N 33°11' E 033°12'0 0.5
2016-Jul-27 00:32N 33°11' E 033°12'0 0.4
2016-Jul-26 23:32N 33°11' E 033°11'0 0.4
2016-Jul-26 22:32N 33°11' E 033°11'0 0.4
2016-Jul-26 21:29N 33°11' E 033°10'0 0.5
2016-Jul-26 20:32N 33°11' E 033°10'0 0.4
2016-Jul-26 19:29N 33°12' E 033°09'0 0.4
2016-Jul-26 18:32N 33°12' E 033°09'0 0.4
2016-Jul-26 17:32N 33°12' E 033°09'0 0.5
2016-Jul-26 16:29N 33°12' E 033°08'1 0.5
2016-Jul-26 15:32N 33°13' E 033°08'1 0.6
2016-Jul-26 14:32N 33°13' E 033°07'1 0.6
2016-Jul-26 13:26N 33°13' E 033°06'1 0.7
2016-Jul-26 12:32N 33°14' E 033°06'1 0.7
2016-Jul-26 11:23N 33°14' E 033°05'1 0.7
2016-Jul-26 10:05N 33°15' E 033°04'2 0.7
2016-Jul-26 07:29N 33°15' E 033°02'1 0.6
2016-Jul-26 05:32N 33°16' E 033°01'4 0.5
2016-Jul-25 22:20N 33°19' E 032°59'1 0.7
2016-Jul-25 21:26N 33°19' E 032°58'1 0.7
2016-Jul-25 20:29N 33°20' E 032°58'1 0.7
2016-Jul-25 19:32N 33°21' E 032°58'2 0.9
2016-Jul-25 17:23N 33°23' E 032°59'7 7.0
2016-Jul-25 16:20N 33°25' E 033°07'1012.2
2016-Jul-25 15:33N 33°27' E 033°18'1312.0
2016-Jul-25 14:28N 33°30' E 033°33'1511.9
2016-Jul-25 13:14N 33°33' E 033°51'911.9
2016-Jul-25 12:28N 33°34' E 034°01'10 9.9
2016-Jul-25 11:28N 33°36' E 034°13'9 1.0
2016-Jul-25 02:32N 33°34' E 034°02'3 0.8
2016-Jul-24 22:32N 33°33' E 033°59'1 0.7
2016-Jul-24 21:05N 33°33' E 033°58'0 0.7
2016-Jul-24 20:29N 33°33' E 033°57'1 0.7
2016-Jul-24 19:29N 33°33' E 033°56'2 1.0
2016-Jul-24 17:17N 33°33' E 033°54'2 1.0
2016-Jul-24 15:32N 33°33' E 033°52'2 1.1
2016-Jul-24 13:29N 33°34' E 033°49'1 1.3
2016-Jul-24 12:23N 33°34' E 033°47'1 1.4
2016-Jul-24 11:29N 33°34' E 033°46'6 1.4
2016-Jul-24 07:14N 33°32' E 033°39'1 1.2
2016-Jul-24 06:05N 33°32' E 033°37'2 1.2
2016-Jul-24 04:20N 33°31' E 033°35'1 1.2
2016-Jul-24 03:32N 33°30' E 033°34'1 1.1
2016-Jul-24 02:32N 33°29' E 033°33'1 1.1
2016-Jul-24 01:32N 33°29' E 033°32'1 1.0
2016-Jul-24 00:32N 33°28' E 033°31'1 1.0
2016-Jul-23 23:17N 33°28' E 033°30'1 0.9
2016-Jul-23 22:32N 33°27' E 033°29'1 0.9
2016-Jul-23 21:32N 33°27' E 033°28'1 0.8
2016-Jul-23 20:32N 33°26' E 033°27'1 0.8
2016-Jul-23 19:32N 33°26' E 033°27'1 0.7
2016-Jul-23 18:32N 33°26' E 033°26'1 0.7
2016-Jul-23 17:29N 33°25' E 033°25'1 0.7
2016-Jul-23 15:29N 33°25' E 033°23'2 0.8
2016-Jul-23 13:32N 33°25' E 033°22'1 0.7
2016-Jul-23 12:11N 33°24' E 033°21'0 0.6
2016-Jul-23 11:23N 33°24' E 033°20'88 1.9
2016-Jul-21 12:34N 32°52' E 034°58'3 3.1
2016-Jul-21 11:31N 32°49' E 034°60'0 0.0
2016-Jul-21 10:31N 32°49' E 034°60'0 0.0
2016-Jul-21 09:32N 32°49' E 034°60'0 0.0
2016-Jul-21 08:31N 32°49' E 034°60'0 0.0
2016-Jul-21 07:32N 32°49' E 034°60'0 0.0
2016-Jul-21 06:32N 32°49' E 034°60'0 0.0
2016-Jul-21 05:32N 32°49' E 034°60'0 0.0
2016-Jul-21 04:32N 32°49' E 034°60'0 0.0
2016-Jul-21 03:32N 32°49' E 034°60'0 0.0
2016-Jul-21 02:28N 32°49' E 034°60'0 0.0
2016-Jul-21 01:31N 32°49' E 034°60'0 0.0
2016-Jul-21 00:32N 32°49' E 034°60'0 0.0
2016-Jul-20 23:31N 32°49' E 034°60'0 0.0
2016-Jul-20 22:31N 32°49' E 034°60'0 0.0
2016-Jul-20 21:32N 32°49' E 034°60'0 0.0
2016-Jul-20 20:31N 32°49' E 034°60'0 0.0
2016-Jul-20 19:31N 32°49' E 034°60'0 0.0
2016-Jul-20 18:31N 32°49' E 034°60'0 0.0
2016-Jul-20 17:31N 32°49' E 034°60'0 0.0
2016-Jul-20 16:31N 32°49' E 034°60'0 0.0
2016-Jul-20 15:31N 32°49' E 034°60'0 0.0
2016-Jul-20 14:32N 32°49' E 034°60'0 0.0
2016-Jul-20 13:28N 32°49' E 034°60'0 0.0
2016-Jul-20 12:31N 32°49' E 034°60'0 0.0
2016-Jul-20 11:31N 32°49' E 034°60'0 0.0
2016-Jul-20 10:31N 32°49' E 034°60'0 0.0
2016-Jul-20 09:31N 32°49' E 034°60'0 0.0
2016-Jul-20 08:31N 32°49' E 034°60'0 0.0
2016-Jul-20 07:28N 32°49' E 034°60'0 0.0
2016-Jul-20 06:28N 32°49' E 034°60'0 0.0
2016-Jul-20 05:31N 32°49' E 034°60'0 0.0
2016-Jul-20 04:31N 32°49' E 034°60'0 0.0
2016-Jul-20 03:31N 32°49' E 034°60'0 0.0
2016-Jul-20 02:31N 32°49' E 034°60'0 0.0
2016-Jul-20 01:31N 32°49' E 034°60'0 0.0
2016-Jul-20 00:31N 32°49' E 034°60'0 0.0
2016-Jul-19 23:31N 32°49' E 034°60'0 0.0
2016-Jul-19 22:31N 32°49' E 034°60'0 0.0
2016-Jul-19 21:28N 32°49' E 034°60'0 0.0
2016-Jul-19 20:28N 32°49' E 034°60'0 0.0
2016-Jul-19 19:28N 32°49' E 034°60'0 0.0
2016-Jul-19 18:28N 32°49' E 034°60'0 0.0
2016-Jul-19 17:31N 32°49' E 034°60'0 0.0
2016-Jul-19 16:31N 32°49' E 034°60'0 0.0
2016-Jul-19 15:31N 32°49' E 034°60'0 0.0
2016-Jul-19 14:31N 32°49' E 034°60'0 0.0
2016-Jul-19 13:31N 32°49' E 034°60'0 0.0
2016-Jul-19 12:31N 32°49' E 034°60'0 0.0
2016-Jul-19 11:31N 32°49' E 034°60'0 0.0
2016-Jul-19 10:28N 32°49' E 034°60'0 0.0
2016-Jul-19 09:31N 32°49' E 034°60'0 0.0
2016-Jul-19 08:31N 32°49' E 034°60'0 0.0
2016-Jul-19 07:25N 32°49' E 034°60'0 0.0
2016-Jul-19 04:31N 32°49' E 034°60'0 0.0
2016-Jul-19 03:31N 32°49' E 034°60'0 0.0
2016-Jul-19 02:31N 32°49' E 034°60'  

Dump ship's entire track history